Barnhill, IL (62809)

3:46 AM CST on January 23, 2017 (GMT -0600)
Uptown | | Change Station
Active Advisory: Special Statement

Elev 441 ft 38.38 °N, 88.36 °W | Updated 39 seconds ago

Overcast
Overcast
41.4 °F
Feels Like 38 °F
N
5.0
Wind Variable Wind from NNW
Gusts 6.0 mph

Today
High -- | Low -- °F
--% Chance of Precip.
Yesterday
High -- | Low -- °F
Precip. -- in
Pressure 29.63 in
Visibility 7.0 miles
Clouds Overcast 1200 ft
Windchill 38 °F
Dew Point 39 °F
Humidity 90%
Rainfall 0.00 in
Snow Depth Not available.
7:04 AM 5:06 PM
Waning Crescent, 19% visible
METAR KFWC 230935Z AUTO 32007KT 7SM OVC012 05/04 A2963 RMK AO1 T00520035
Pressure 29.63 in
Visibility 7.0 miles
Clouds Overcast 1200 ft
Windchill 38 °F
Dew Point 39 °F
Humidity 90%
Rainfall 0.00 in
Snow Depth Not available.
7:04 AM 5:06 PM
Waning Crescent, 19% visible
METAR KFWC 230935Z AUTO 32007KT 7SM OVC012 05/04 A2963 RMK AO1 T00520035

Get Your Daily Forecast Email!

Thanks for signing up!

Be on the lookout for a verification email in your inbox.

You'll start receiving the daily forecast at 8 AM.

×

10-Day Weather Forecast

Almanac

Astronomy

Jan. 23, 2017 Rise Set
Actual Time
Civil Twilight
Nautical Twilight
Astronomical Twilight
Moon
Length of Visible Light
Length of Day
Tomorrow will be .
, % of the Moon is Illuminated

Today's Extremes

State Highs State Lows

Community

WunderPhotos

Upload Photos

1,962,540 photos uploaded!

WunderBlog® & News

Nearby

Air Quality

  Air Quality AQ Index Pollutant
Not available.

Snow Depth

Station Depth Elevation

Earthquake Activity

City Distance Mag. Time & Date
Minimum magnitude displayed is 2.5.

Coastal Water Temperatures

Place Temperature

Stations

Nearby Weather Stations

Station Location Temp. Windchill Dew Point Humidity Wind Precip. Elev Updated Type
                   

Watches & Warnings

Special Statement
Issued: 10:23 PM CST Jan. 22, 2017 – National Weather Service

... Gusty northwest winds to continue tonight into Monday morning...

Northwest winds will gust from 25 to 35 mph at times through
Monday morning. This will cause loose objects to blow around.
Travel may be difficult for some high profile vehicles.



1023 PM CST sun Jan 22 2017

... Gusty northwest winds to continue tonight into Monday morning...

Northwest winds will gust from 25 to 35 mph at times through
Monday morning. This will cause loose objects to blow around.
Travel may be difficult for some high profile vehicles.


1023 PM CST sun Jan 22 2017

... Gusty northwest winds to continue tonight into Monday morning...

Northwest winds will gust from 25 to 35 mph at times through
Monday morning. This will cause loose objects to blow around.
Travel may be difficult for some high profile vehicles.